createdAt,value
2022-10-08T00:00:33.220Z,2.90
2022-10-08T00:03:02.930Z,3.20
2022-10-08T00:05:32.058Z,2.95
2022-10-08T00:08:02.850Z,3.33
2022-10-08T00:10:34.370Z,3.28
2022-10-08T00:13:06.012Z,3.10
2022-10-08T00:15:38.828Z,3.17
2022-10-08T00:18:07.669Z,3.05
2022-10-08T00:20:37.549Z,3.22
2022-10-08T00:23:08.427Z,3.42
2022-10-08T00:25:46.431Z,3.08
2022-10-08T00:28:17.182Z,3.35
2022-10-08T00:30:48.032Z,2.95
2022-10-08T00:33:24.209Z,2.85
2022-10-08T00:35:57.065Z,3.40
2022-10-08T00:38:26.174Z,3.10
2022-10-08T00:40:58.400Z,3.65
2022-10-08T00:43:44.294Z,2.70
2022-10-08T00:46:21.336Z,2.88
2022-10-08T00:48:51.492Z,3.40
2022-10-08T00:51:23.210Z,3.05
2022-10-08T00:53:53.737Z,3.42
2022-10-08T00:56:24.886Z,2.97
2022-10-08T00:58:55.317Z,3.20
2022-10-08T01:01:26.376Z,3.47
2022-10-08T01:03:57.370Z,3.42
2022-10-08T01:06:31.934Z,3.05
2022-10-08T01:09:14.085Z,2.92
2022-10-08T01:11:59.350Z,3.33
2022-10-08T01:14:40.727Z,3.50
2022-10-08T01:17:17.547Z,2.92
2022-10-08T01:20:21.176Z,3.28
2022-10-08T01:23:18.281Z,2.53
2022-10-08T01:25:57.702Z,2.70
2022-10-08T01:28:33.713Z,3.15
2022-10-08T01:31:08.765Z,2.97
2022-10-08T01:33:47.451Z,3.42
2022-10-08T01:36:19.975Z,3.28
2022-10-08T01:38:57.725Z,3.13
2022-10-08T01:41:29.654Z,3.38
2022-10-08T01:44:06.063Z,2.85
2022-10-08T01:46:38.730Z,3.22
2022-10-08T01:49:14.119Z,3.50
2022-10-08T01:51:49.937Z,3.47
2022-10-08T01:54:20.175Z,3.22
2022-10-08T01:56:51.232Z,3.10
2022-10-08T01:59:26.074Z,3.53
2022-10-08T02:02:07.778Z,3.38
2022-10-08T02:04:38.755Z,3.25
2022-10-08T02:07:11.256Z,2.85
2022-10-08T02:09:42.765Z,3.67
2022-10-08T02:12:12.905Z,3.05
2022-10-08T02:14:45.451Z,3.03
2022-10-08T02:17:26.651Z,2.90
2022-10-08T02:19:59.894Z,3.10
2022-10-08T02:22:34.628Z,2.70
2022-10-08T02:25:12.337Z,3.22
2022-10-08T02:27:52.204Z,3.33
2022-10-08T02:30:24.172Z,3.05
2022-10-08T02:33:00.579Z,2.88
2022-10-08T02:35:41.303Z,2.97
2022-10-08T02:38:18.386Z,2.90
2022-10-08T02:40:52.490Z,3.63
2022-10-08T02:43:25.583Z,3.13
2022-10-08T02:46:04.822Z,3.05
2022-10-08T02:48:35.680Z,3.30
2022-10-08T02:51:09.516Z,3.35
2022-10-08T02:53:42.051Z,3.58
2022-10-08T02:56:20.127Z,3.78
2022-10-08T02:58:49.314Z,3.35
2022-10-08T03:01:28.752Z,3.47
2022-10-08T03:04:04.527Z,2.65
2022-10-08T03:06:42.019Z,3.38
2022-10-08T03:09:15.955Z,3.33
2022-10-08T03:11:45.357Z,3.50
2022-10-08T03:14:17.402Z,3.00
2022-10-08T03:16:49.794Z,3.20
2022-10-08T03:19:20.551Z,3.30
2022-10-08T03:21:55.175Z,3.03
2022-10-08T03:24:24.810Z,3.53
2022-10-08T03:26:55.428Z,3.42
2022-10-08T03:29:23.846Z,3.35
2022-10-08T03:31:53.783Z,3.90
2022-10-08T03:34:23.419Z,4.07
2022-10-08T03:36:52.130Z,3.45
2022-10-08T03:39:23.809Z,3.80
2022-10-08T03:41:52.187Z,3.50
2022-10-08T03:44:20.619Z,3.20
2022-10-08T03:46:49.784Z,3.45
2022-10-08T03:49:20.799Z,3.70
2022-10-08T03:51:57.422Z,3.35
2022-10-08T03:54:26.883Z,3.70
2022-10-08T03:56:55.365Z,3.35
2022-10-08T03:59:24.072Z,3.50
2022-10-08T04:01:56.592Z,3.83
2022-10-08T04:04:28.710Z,4.13
2022-10-08T04:06:58.455Z,3.72
2022-10-08T04:09:26.920Z,3.55
2022-10-08T04:11:56.038Z,4.70
2022-10-08T04:14:26.782Z,4.32
2022-10-08T04:16:57.793Z,4.55
2022-10-08T04:19:28.287Z,4.70
2022-10-08T04:21:58.065Z,4.05
2022-10-08T04:24:27.943Z,4.10
2022-10-08T04:26:56.527Z,3.28
2022-10-08T04:29:26.303Z,3.78
2022-10-08T04:31:54.871Z,3.85
2022-10-08T04:34:25.660Z,3.60
2022-10-08T04:36:56.920Z,3.47
2022-10-08T04:39:25.414Z,3.90
2022-10-08T04:41:55.272Z,3.20
2022-10-08T04:44:25.017Z,3.40
2022-10-08T04:46:54.956Z,2.88
2022-10-08T04:49:25.112Z,3.25
2022-10-08T04:51:53.630Z,3.05
2022-10-08T04:54:23.982Z,3.15
2022-10-08T04:56:54.671Z,3.10
2022-10-08T04:59:24.159Z,3.53
2022-10-08T05:01:58.064Z,3.75
2022-10-08T05:04:32.908Z,3.40
2022-10-08T05:07:01.812Z,3.10
2022-10-08T05:09:34.455Z,2.78
2022-10-08T05:12:04.088Z,3.65
2022-10-08T05:14:32.628Z,3.50
2022-10-08T05:17:02.590Z,3.67
2022-10-08T05:19:31.270Z,3.58
2022-10-08T05:22:00.071Z,3.35
2022-10-08T05:24:30.099Z,3.25
2022-10-08T05:27:07.238Z,3.33
2022-10-08T05:29:36.216Z,3.55
2022-10-08T05:32:06.875Z,3.42
2022-10-08T05:34:40.275Z,2.95
2022-10-08T05:37:09.969Z,3.95
2022-10-08T05:39:38.548Z,2.90
2022-10-08T05:42:08.774Z,3.70
2022-10-08T05:44:37.959Z,3.60
2022-10-08T05:47:06.500Z,3.08
2022-10-08T05:49:37.006Z,3.80
2022-10-08T05:52:05.550Z,3.47
2022-10-08T05:54:35.420Z,3.33
2022-10-08T05:57:19.003Z,3.83
2022-10-08T05:59:49.177Z,4.63
2022-10-08T06:02:27.193Z,3.33
2022-10-08T06:05:02.140Z,3.33
2022-10-08T06:07:33.274Z,3.35
2022-10-08T06:10:02.332Z,3.80
2022-10-08T06:12:33.981Z,3.55
2022-10-08T06:15:02.425Z,3.65
2022-10-08T06:17:31.142Z,3.90
2022-10-08T06:19:59.620Z,3.13
2022-10-08T06:22:28.287Z,3.50
2022-10-08T06:24:56.905Z,3.40
2022-10-08T06:27:25.759Z,4.10
2022-10-08T06:29:55.914Z,3.05
2022-10-08T06:32:25.495Z,3.80
2022-10-08T06:34:54.167Z,3.17
2022-10-08T06:37:22.525Z,3.75
2022-10-08T06:39:51.853Z,3.47
2022-10-08T06:42:20.695Z,3.42
2022-10-08T06:44:49.298Z,3.70
2022-10-08T06:47:19.543Z,3.30
2022-10-08T06:49:48.258Z,3.60
2022-10-08T06:52:17.256Z,3.17
2022-10-08T06:54:46.323Z,3.53
2022-10-08T06:57:14.768Z,3.40
2022-10-08T06:59:43.820Z,3.38
2022-10-08T07:02:12.932Z,3.38
2022-10-08T07:04:42.990Z,2.90
2022-10-08T07:07:11.870Z,3.20
2022-10-08T07:09:41.764Z,3.50
2022-10-08T07:12:10.522Z,3.33
2022-10-08T07:14:39.608Z,3.25
2022-10-08T07:17:09.560Z,3.05
2022-10-08T07:19:37.988Z,2.90
2022-10-08T07:22:08.269Z,3.67
2022-10-08T07:24:36.823Z,3.22
2022-10-08T07:27:05.684Z,3.47
2022-10-08T07:29:34.251Z,3.55
2022-10-08T07:32:02.835Z,3.30
2022-10-08T07:34:31.379Z,3.42
2022-10-08T07:37:00.147Z,3.90
2022-10-08T07:39:30.565Z,3.20
2022-10-08T07:41:59.317Z,3.08
2022-10-08T07:44:27.985Z,3.20
2022-10-08T07:46:57.093Z,3.10
2022-10-08T07:49:26.444Z,3.38
2022-10-08T07:51:55.198Z,3.20
2022-10-08T07:54:23.827Z,3.63
2022-10-08T07:56:54.299Z,3.15
2022-10-08T07:59:23.098Z,3.50
2022-10-08T08:01:51.739Z,4.50
2022-10-08T08:04:20.191Z,3.75
2022-10-08T08:06:49.552Z,3.58
2022-10-08T08:09:18.520Z,4.00
2022-10-08T08:11:47.662Z,5.53
2022-10-08T08:14:20.083Z,2.88
2022-10-08T08:16:49.111Z,3.20
2022-10-08T08:19:17.634Z,3.00
2022-10-08T08:21:46.237Z,3.15
2022-10-08T08:24:15.705Z,2.72
2022-10-08T08:26:45.399Z,2.95
2022-10-08T08:29:23.441Z,2.65
2022-10-08T08:31:52.400Z,3.15
2022-10-08T08:35:05.388Z,2.92
2022-10-08T08:37:34.001Z,3.20
2022-10-08T08:40:02.749Z,3.67
2022-10-08T08:42:44.938Z,3.28
2022-10-08T08:45:45.341Z,3.20
2022-10-08T08:48:21.110Z,2.88
2022-10-08T08:50:52.573Z,3.40
2022-10-08T08:53:22.011Z,2.88
2022-10-08T08:55:55.760Z,3.25
2022-10-08T08:58:35.631Z,3.67
2022-10-08T09:01:16.158Z,4.00
2022-10-08T09:03:47.817Z,3.33
2022-10-08T09:06:20.109Z,3.55
2022-10-08T09:08:53.178Z,3.22
2022-10-08T09:11:25.331Z,3.55
2022-10-08T09:13:59.913Z,3.22
2022-10-08T09:16:31.002Z,3.30
2022-10-08T09:18:59.512Z,3.17
2022-10-08T09:21:33.777Z,3.08
2022-10-08T09:24:02.925Z,3.28
2022-10-08T09:26:34.378Z,3.58
2022-10-08T09:29:05.497Z,2.78
2022-10-08T09:31:42.653Z,3.13
2022-10-08T09:34:20.169Z,3.03
2022-10-08T09:36:50.946Z,2.72
2022-10-08T09:39:22.393Z,2.63
2022-10-08T09:42:15.505Z,2.92
2022-10-08T09:44:46.284Z,2.53
2022-10-08T09:47:32.198Z,2.92
2022-10-08T09:50:05.473Z,2.65
2022-10-08T09:52:36.808Z,2.60
2022-10-08T09:55:11.363Z,2.42
2022-10-08T09:57:46.104Z,2.33
2022-10-08T10:00:26.854Z,2.90
2022-10-08T10:03:00.295Z,2.40
2022-10-08T10:05:33.687Z,2.53
2022-10-08T10:08:02.827Z,2.22
2022-10-08T10:10:35.513Z,2.45
2022-10-08T10:13:10.733Z,2.10
2022-10-08T10:15:43.149Z,2.30
2022-10-08T10:18:18.439Z,2.30
2022-10-08T10:20:51.902Z,2.25
2022-10-08T10:23:24.184Z,2.22
2022-10-08T10:26:01.777Z,2.33
2022-10-08T10:28:41.531Z,2.17
2022-10-08T10:31:15.649Z,2.55
2022-10-08T10:33:53.070Z,2.58
2022-10-08T10:36:23.797Z,2.20
2022-10-08T10:38:58.767Z,2.22
2022-10-08T10:41:35.985Z,2.00
2022-10-08T10:44:07.874Z,2.30
2022-10-08T10:46:42.997Z,2.50
2022-10-08T10:49:17.076Z,2.55
2022-10-08T10:52:04.659Z,2.33
2022-10-08T10:54:55.090Z,2.08
2022-10-08T10:57:39.510Z,1.80
2022-10-08T11:00:17.666Z,2.03
2022-10-08T11:02:53.445Z,1.77
2022-10-08T11:05:26.626Z,1.92
2022-10-08T11:08:10.851Z,2.05
2022-10-08T11:10:55.510Z,2.00
2022-10-08T11:13:45.880Z,2.00
2022-10-08T11:16:27.563Z,2.25
2022-10-08T11:18:59.211Z,1.90
2022-10-08T11:21:48.089Z,3.33
2022-10-08T11:24:44.773Z,2.40
2022-10-08T11:27:20.845Z,2.30
2022-10-08T11:29:57.841Z,2.15
2022-10-08T11:32:30.022Z,1.98
2022-10-08T11:35:16.850Z,1.88
2022-10-08T11:37:52.629Z,2.35
2022-10-08T11:40:30.659Z,2.10
2022-10-08T11:43:06.828Z,3.28
2022-10-08T11:45:38.437Z,1.80
2022-10-08T11:48:32.260Z,2.25
2022-10-08T11:51:38.060Z,1.88
2022-10-08T11:54:17.582Z,1.88
2022-10-08T11:57:10.360Z,1.98
2022-10-08T11:59:42.425Z,1.83
2022-10-08T12:02:25.818Z,2.40
2022-10-08T12:04:57.261Z,2.05
2022-10-08T12:07:31.097Z,1.63
2022-10-08T12:10:31.251Z,1.50
2022-10-08T12:13:24.354Z,2.40
2022-10-08T12:15:56.008Z,1.85
2022-10-08T12:18:34.431Z,1.95
2022-10-08T12:21:55.258Z,1.83
2022-10-08T12:24:55.671Z,2.05
2022-10-08T12:27:32.231Z,1.90
2022-10-08T12:30:03.771Z,1.98
2022-10-08T12:32:34.473Z,1.50
2022-10-08T12:35:04.881Z,1.60
2022-10-08T12:37:56.079Z,1.90
2022-10-08T12:40:35.285Z,1.88
2022-10-08T12:43:17.709Z,1.65
2022-10-08T12:45:57.902Z,1.60
2022-10-08T12:48:36.484Z,1.60
2022-10-08T12:51:23.959Z,1.75
2022-10-08T12:53:52.765Z,1.70
2022-10-08T12:56:26.594Z,1.60
2022-10-08T12:59:06.065Z,1.75
2022-10-08T13:01:36.410Z,1.77
2022-10-08T13:04:19.759Z,1.70
2022-10-08T13:06:49.592Z,1.40
2022-10-08T13:09:28.331Z,1.85
2022-10-08T13:12:03.182Z,1.40
2022-10-08T13:14:36.117Z,1.60
2022-10-08T13:17:06.704Z,1.60
2022-10-08T13:19:38.180Z,1.67
2022-10-08T13:22:09.020Z,1.67
2022-10-08T13:24:42.454Z,1.60
2022-10-08T13:27:26.226Z,1.38
2022-10-08T13:29:58.690Z,1.63
2022-10-08T13:32:30.715Z,1.58
2022-10-08T13:35:01.893Z,1.45
2022-10-08T13:37:36.433Z,1.58
2022-10-08T13:40:18.404Z,1.67
2022-10-08T13:42:51.272Z,1.50
2022-10-08T13:45:24.464Z,1.77
2022-10-08T13:47:53.271Z,1.90
2022-10-08T13:50:25.169Z,1.80
2022-10-08T13:52:57.625Z,1.40
2022-10-08T13:55:28.821Z,1.50
2022-10-08T13:58:00.269Z,1.50
2022-10-08T14:00:31.188Z,1.50
2022-10-08T14:03:00.075Z,1.30
2022-10-08T14:05:31.961Z,1.58
2022-10-08T14:08:05.440Z,1.65
2022-10-08T14:10:34.623Z,1.52
2022-10-08T14:13:04.621Z,1.58
2022-10-08T14:15:34.987Z,1.65
2022-10-08T14:18:03.630Z,1.60
2022-10-08T14:20:32.336Z,1.23
2022-10-08T14:23:01.037Z,1.33
2022-10-08T14:25:31.280Z,1.65
2022-10-08T14:28:01.293Z,1.40
2022-10-08T14:30:31.581Z,1.50
2022-10-08T14:33:05.591Z,1.50
2022-10-08T14:35:37.489Z,1.65
2022-10-08T14:38:06.362Z,1.67
2022-10-08T14:40:35.766Z,1.60
2022-10-08T14:43:04.206Z,1.60
2022-10-08T14:45:32.827Z,1.83
2022-10-08T14:48:03.395Z,1.63
2022-10-08T14:50:31.867Z,1.70
2022-10-08T14:53:00.537Z,1.60
2022-10-08T14:55:29.873Z,1.70
2022-10-08T14:57:59.627Z,1.45
2022-10-08T15:00:27.898Z,1.50
2022-10-08T15:02:56.377Z,1.50
2022-10-08T15:05:26.501Z,1.38
2022-10-08T15:07:55.386Z,1.58
2022-10-08T15:10:23.748Z,1.60
2022-10-08T15:12:52.594Z,1.52
2022-10-08T15:15:21.507Z,1.42
2022-10-08T15:17:50.498Z,1.35
2022-10-08T15:20:19.662Z,1.58
2022-10-08T15:22:51.044Z,1.50
2022-10-08T15:25:21.395Z,1.70
2022-10-08T15:27:49.976Z,1.60
2022-10-08T15:30:19.018Z,1.58
2022-10-08T15:32:47.698Z,1.60
2022-10-08T15:35:18.003Z,1.70
2022-10-08T15:37:48.171Z,2.10
2022-10-08T15:40:18.727Z,2.05
2022-10-08T15:42:52.359Z,2.00
2022-10-08T15:45:21.453Z,1.70
2022-10-08T15:47:50.682Z,1.85
2022-10-08T15:50:20.031Z,1.80
2022-10-08T15:52:48.813Z,1.65
2022-10-08T15:55:18.921Z,1.55
2022-10-08T15:57:47.806Z,1.50
2022-10-08T16:00:16.886Z,1.73
2022-10-08T16:02:45.836Z,1.65
2022-10-08T16:05:15.138Z,1.70
2022-10-08T16:07:43.638Z,1.73
2022-10-08T16:10:12.359Z,2.60
2022-10-08T16:12:42.769Z,2.03
2022-10-08T16:15:12.065Z,1.15
2022-10-08T16:17:40.420Z,1.52
2022-10-08T16:20:10.197Z,1.30
2022-10-08T16:22:39.586Z,1.40
2022-10-08T16:25:08.673Z,1.55
2022-10-08T16:27:37.224Z,1.13
2022-10-08T16:30:09.482Z,1.35
2022-10-08T16:32:38.188Z,1.70
2022-10-08T16:35:08.117Z,7.30
2022-10-08T16:37:36.542Z,1.80
2022-10-08T16:40:05.719Z,1.60
2022-10-08T16:42:34.222Z,1.63
2022-10-08T16:45:02.550Z,2.10
2022-10-08T16:47:32.784Z,3.17
2022-10-08T16:50:01.702Z,2.67
2022-10-08T16:52:30.621Z,3.00
2022-10-08T16:54:59.228Z,2.45
2022-10-08T16:57:29.030Z,1.50
2022-10-08T16:59:57.831Z,1.63
2022-10-08T17:02:27.234Z,1.40
2022-10-08T17:04:58.035Z,1.73
2022-10-08T17:07:26.965Z,1.70
2022-10-08T17:09:55.688Z,1.60
2022-10-08T17:12:24.503Z,2.40
2022-10-08T17:14:53.173Z,2.10
2022-10-08T17:17:22.023Z,2.35
2022-10-08T17:19:50.767Z,1.95
2022-10-08T17:22:21.260Z,2.10
2022-10-08T17:24:49.960Z,1.70
2022-10-08T17:27:18.502Z,2.00
2022-10-08T17:29:47.061Z,2.00
2022-10-08T17:32:15.746Z,1.90
2022-10-08T17:34:44.219Z,2.00
2022-10-08T17:37:13.093Z,2.00
2022-10-08T17:39:43.934Z,2.50
2022-10-08T17:42:12.542Z,2.15
2022-10-08T17:44:40.876Z,2.20
2022-10-08T17:47:10.150Z,2.20
2022-10-08T17:49:38.808Z,2.78
2022-10-08T17:52:07.515Z,2.38
2022-10-08T17:54:36.110Z,3.28
2022-10-08T17:57:06.045Z,3.38
2022-10-08T17:59:34.853Z,2.90
2022-10-08T18:02:03.909Z,3.00
2022-10-08T18:04:33.691Z,2.80
2022-10-08T18:07:03.613Z,3.30
2022-10-08T18:09:33.952Z,3.00
2022-10-08T18:12:02.427Z,3.10
2022-10-08T18:14:32.719Z,4.07
2022-10-08T18:17:01.229Z,4.47
2022-10-08T18:19:30.133Z,4.50
2022-10-08T18:21:59.891Z,4.65
2022-10-08T18:24:28.680Z,5.38
2022-10-08T18:26:59.757Z,6.88
2022-10-08T18:29:28.751Z,4.30
2022-10-08T18:31:59.194Z,2.92
2022-10-08T18:34:28.251Z,4.97
2022-10-08T18:36:57.130Z,10.48
2022-10-08T18:39:28.520Z,4.38
2022-10-08T18:41:57.403Z,3.00
2022-10-08T18:44:35.069Z,2.80
2022-10-08T18:47:05.737Z,2.20
2022-10-08T18:49:35.427Z,2.28
2022-10-08T18:52:04.721Z,3.10
2022-10-08T18:54:33.338Z,2.42
2022-10-08T18:57:01.843Z,2.78
2022-10-08T18:59:31.659Z,3.00
2022-10-08T19:02:01.170Z,3.53
2022-10-08T19:04:32.588Z,2.92
2022-10-08T19:07:01.559Z,3.40
2022-10-08T19:09:30.492Z,3.28
2022-10-08T19:12:01.084Z,2.78
2022-10-08T19:14:30.984Z,3.03
2022-10-08T19:17:00.529Z,2.85
2022-10-08T19:19:32.213Z,2.78
2022-10-08T19:22:02.052Z,3.00
2022-10-08T19:24:31.427Z,2.65
2022-10-08T19:27:00.197Z,2.58
2022-10-08T19:29:33.849Z,3.28
2022-10-08T19:32:02.692Z,2.63
2022-10-08T19:34:33.625Z,3.33
2022-10-08T19:37:02.300Z,3.10
2022-10-08T19:39:31.945Z,3.25
2022-10-08T19:42:02.054Z,3.05
2022-10-08T19:44:30.885Z,2.45
2022-10-08T19:47:00.663Z,2.67
2022-10-08T19:49:29.344Z,2.67
2022-10-08T19:52:00.251Z,2.63
2022-10-08T19:54:29.308Z,2.38
2022-10-08T19:56:58.046Z,2.80
2022-10-08T19:59:26.644Z,2.95
2022-10-08T20:01:55.311Z,3.20
2022-10-08T20:04:24.096Z,2.50
2022-10-08T20:06:53.726Z,2.75
2022-10-08T20:09:24.864Z,3.38
2022-10-08T20:11:56.325Z,2.78
2022-10-08T20:14:24.653Z,3.65
2022-10-08T20:16:54.458Z,3.35
2022-10-08T20:19:24.078Z,3.25
2022-10-08T20:21:55.875Z,3.10
2022-10-08T20:24:25.964Z,3.40
2022-10-08T20:26:54.873Z,3.38
2022-10-08T20:29:28.703Z,3.08
2022-10-08T20:32:00.107Z,3.80
2022-10-08T20:34:31.688Z,3.45
2022-10-08T20:37:02.524Z,3.30
2022-10-08T20:39:32.903Z,3.13
2022-10-08T20:42:01.542Z,3.78
2022-10-08T20:44:30.326Z,3.40
2022-10-08T20:47:01.966Z,2.95
2022-10-08T20:49:36.457Z,3.50
2022-10-08T20:52:05.721Z,3.60
2022-10-08T20:54:37.295Z,2.80
2022-10-08T20:57:06.212Z,3.50
2022-10-08T20:59:35.112Z,3.80
2022-10-08T21:02:06.850Z,3.30
2022-10-08T21:04:36.676Z,3.13
2022-10-08T21:07:06.227Z,3.53
2022-10-08T21:09:34.675Z,3.08
2022-10-08T21:12:05.415Z,4.05
2022-10-08T21:14:34.057Z,2.65
2022-10-08T21:17:02.694Z,2.80
2022-10-08T21:19:32.317Z,2.50
2022-10-08T21:22:01.430Z,3.08
2022-10-08T21:24:30.299Z,2.95
2022-10-08T21:26:58.867Z,2.65
2022-10-08T21:29:29.242Z,2.40
2022-10-08T21:31:57.883Z,2.72
2022-10-08T21:34:28.626Z,2.35
2022-10-08T21:36:58.655Z,2.22
2022-10-08T21:39:27.211Z,2.13
2022-10-08T21:41:55.767Z,2.45
2022-10-08T21:44:29.972Z,2.78
2022-10-08T21:46:58.410Z,2.60
2022-10-08T21:49:27.754Z,2.70
2022-10-08T21:51:57.923Z,3.15
2022-10-08T21:54:27.593Z,3.03
2022-10-08T21:56:56.237Z,3.20
2022-10-08T21:59:26.765Z,3.25
2022-10-08T22:01:57.775Z,2.90
2022-10-08T22:04:27.141Z,2.72
2022-10-08T22:06:59.685Z,2.78
2022-10-08T22:09:30.271Z,2.75
2022-10-08T22:12:00.754Z,3.05
2022-10-08T22:14:30.047Z,3.00
2022-10-08T22:17:00.263Z,3.03
2022-10-08T22:19:28.655Z,3.10
2022-10-08T22:21:57.423Z,3.03
2022-10-08T22:24:27.193Z,2.92
2022-10-08T22:26:55.912Z,2.97
2022-10-08T22:29:24.321Z,2.60
2022-10-08T22:31:55.201Z,2.45
2022-10-08T22:34:25.742Z,2.40
2022-10-08T22:36:54.126Z,1.70
2022-10-08T22:39:22.731Z,2.10
2022-10-08T22:41:51.170Z,2.00
2022-10-08T22:44:21.017Z,1.85
2022-10-08T22:46:49.852Z,1.77
2022-10-08T22:49:18.470Z,1.70
2022-10-08T22:51:50.039Z,1.88
2022-10-08T22:54:18.625Z,1.67
2022-10-08T22:56:47.485Z,1.70
2022-10-08T22:59:15.884Z,1.50
2022-10-08T23:01:44.807Z,1.75
2022-10-08T23:04:13.609Z,2.05
2022-10-08T23:06:42.072Z,1.73
2022-10-08T23:09:14.501Z,1.95
2022-10-08T23:11:42.934Z,2.10
2022-10-08T23:14:12.056Z,2.20
2022-10-08T23:16:40.762Z,2.38
2022-10-08T23:19:10.580Z,2.28
2022-10-08T23:21:44.170Z,1.75
2022-10-08T23:24:14.454Z,2.10
2022-10-08T23:26:43.066Z,1.92
2022-10-08T23:29:13.159Z,1.92
2022-10-08T23:31:42.267Z,1.70
2022-10-08T23:34:11.319Z,1.70
2022-10-08T23:36:41.904Z,1.77
2022-10-08T23:39:15.459Z,1.50
2022-10-08T23:41:44.448Z,2.08
2022-10-08T23:44:13.872Z,1.63
2022-10-08T23:46:42.984Z,1.23
2022-10-08T23:49:11.986Z,1.70
2022-10-08T23:51:40.583Z,1.83
2022-10-08T23:54:09.056Z,1.38
2022-10-08T23:56:41.617Z,1.67
2022-10-08T23:59:10.216Z,1.58
